sensor_id;sensor_type;location;lat;lon;timestamp;temperature;humidity
71254;HTU21D;59019;47.638;18.966;2023-09-19T00:00:35;22.51;81.75
71254;HTU21D;59019;47.638;18.966;2023-09-19T00:03:01;22.57;81.57
71254;HTU21D;59019;47.638;18.966;2023-09-19T00:05:28;22.49;81.74
71254;HTU21D;59019;47.638;18.966;2023-09-19T00:07:56;22.51;81.62
71254;HTU21D;59019;47.638;18.966;2023-09-19T00:10:25;22.46;81.73
71254;HTU21D;59019;47.638;18.966;2023-09-19T00:12:53;22.48;81.91
71254;HTU21D;59019;47.638;18.966;2023-09-19T00:15:22;22.42;82.04
71254;HTU21D;59019;47.638;18.966;2023-09-19T00:17:48;22.39;82.85
71254;HTU21D;59019;47.638;18.966;2023-09-19T00:20:14;22.22;83.66
71254;HTU21D;59019;47.638;18.966;2023-09-19T00:22:42;22.19;84.04
71254;HTU21D;59019;47.638;18.966;2023-09-19T00:25:11;21.97;84.77
71254;HTU21D;59019;47.638;18.966;2023-09-19T00:27:38;22.01;85.81
71254;HTU21D;59019;47.638;18.966;2023-09-19T00:30:08;21.88;86.36
71254;HTU21D;59019;47.638;18.966;2023-09-19T00:32:41;21.79;86.27
71254;HTU21D;59019;47.638;18.966;2023-09-19T00:35:06;21.69;86.71
71254;HTU21D;59019;47.638;18.966;2023-09-19T00:37:36;21.67;88.13
71254;HTU21D;59019;47.638;18.966;2023-09-19T00:40:03;21.60;87.41
71254;HTU21D;59019;47.638;18.966;2023-09-19T00:42:31;21.55;87.80
71254;HTU21D;59019;47.638;18.966;2023-09-19T00:44:57;21.57;88.51
71254;HTU21D;59019;47.638;18.966;2023-09-19T00:47:30;21.61;86.98
71254;HTU21D;59019;47.638;18.966;2023-09-19T00:49:56;21.61;87.48
71254;HTU21D;59019;47.638;18.966;2023-09-19T00:52:22;21.57;87.85
71254;HTU21D;59019;47.638;18.966;2023-09-19T00:54:49;21.68;86.80
71254;HTU21D;59019;47.638;18.966;2023-09-19T00:57:17;21.61;87.00
71254;HTU21D;59019;47.638;18.966;2023-09-19T00:59:46;21.60;86.99
71254;HTU21D;59019;47.638;18.966;2023-09-19T01:02:14;21.64;86.92
71254;HTU21D;59019;47.638;18.966;2023-09-19T01:04:40;21.58;87.26
71254;HTU21D;59019;47.638;18.966;2023-09-19T01:07:06;21.59;87.17
71254;HTU21D;59019;47.638;18.966;2023-09-19T01:09:33;21.64;87.13
71254;HTU21D;59019;47.638;18.966;2023-09-19T01:12:02;21.63;86.74
71254;HTU21D;59019;47.638;18.966;2023-09-19T01:14:36;21.72;86.51
71254;HTU21D;59019;47.638;18.966;2023-09-19T01:17:17;21.76;86.64
71254;HTU21D;59019;47.638;18.966;2023-09-19T01:23:17;21.70;87.65
71254;HTU21D;59019;47.638;18.966;2023-09-19T01:28:30;21.65;87.56
71254;HTU21D;59019;47.638;18.966;2023-09-19T01:31:02;21.61;87.09
71254;HTU21D;59019;47.638;18.966;2023-09-19T01:33:52;21.66;87.29
71254;HTU21D;59019;47.638;18.966;2023-09-19T01:36:16;21.66;87.42
71254;HTU21D;59019;47.638;18.966;2023-09-19T01:38:42;21.68;87.15
71254;HTU21D;59019;47.638;18.966;2023-09-19T01:41:12;21.65;87.70
71254;HTU21D;59019;47.638;18.966;2023-09-19T01:43:42;21.72;87.57
71254;HTU21D;59019;47.638;18.966;2023-09-19T01:46:21;21.68;87.78
71254;HTU21D;59019;47.638;18.966;2023-09-19T01:51:37;21.75;87.70
71254;HTU21D;59019;47.638;18.966;2023-09-19T01:54:19;21.73;87.93
71254;HTU21D;59019;47.638;18.966;2023-09-19T01:59:37;21.77;88.19
71254;HTU21D;59019;47.638;18.966;2023-09-19T02:02:06;21.78;87.96
71254;HTU21D;59019;47.638;18.966;2023-09-19T02:04:34;21.77;88.14
71254;HTU21D;59019;47.638;18.966;2023-09-19T02:07:03;21.78;88.05
71254;HTU21D;59019;47.638;18.966;2023-09-19T02:09:31;21.72;88.72
71254;HTU21D;59019;47.638;18.966;2023-09-19T02:11:58;21.67;88.70
71254;HTU21D;59019;47.638;18.966;2023-09-19T02:14:24;21.67;88.85
71254;HTU21D;59019;47.638;18.966;2023-09-19T02:16:49;21.65;88.95
71254;HTU21D;59019;47.638;18.966;2023-09-19T02:19:15;21.57;89.02
71254;HTU21D;59019;47.638;18.966;2023-09-19T02:21:41;21.54;89.32
71254;HTU21D;59019;47.638;18.966;2023-09-19T02:24:07;21.58;89.05
71254;HTU21D;59019;47.638;18.966;2023-09-19T02:26:33;21.46;89.40
71254;HTU21D;59019;47.638;18.966;2023-09-19T02:29:02;21.27;90.18
71254;HTU21D;59019;47.638;18.966;2023-09-19T02:31:30;21.16;90.76
71254;HTU21D;59019;47.638;18.966;2023-09-19T02:33:56;21.17;90.55
71254;HTU21D;59019;47.638;18.966;2023-09-19T02:36:22;21.11;91.10
71254;HTU21D;59019;47.638;18.966;2023-09-19T02:38:51;21.15;90.81
71254;HTU21D;59019;47.638;18.966;2023-09-19T02:41:17;21.11;91.03
71254;HTU21D;59019;47.638;18.966;2023-09-19T02:43:42;21.14;91.05
71254;HTU21D;59019;47.638;18.966;2023-09-19T02:46:08;21.21;90.79
71254;HTU21D;59019;47.638;18.966;2023-09-19T02:48:34;21.15;90.97
71254;HTU21D;59019;47.638;18.966;2023-09-19T02:51:04;21.15;90.98
71254;HTU21D;59019;47.638;18.966;2023-09-19T02:53:30;21.09;91.08
71254;HTU21D;59019;47.638;18.966;2023-09-19T02:55:57;21.03;91.77
71254;HTU21D;59019;47.638;18.966;2023-09-19T02:58:22;20.96;91.83
71254;HTU21D;59019;47.638;18.966;2023-09-19T03:00:50;20.90;92.21
71254;HTU21D;59019;47.638;18.966;2023-09-19T03:03:16;20.86;92.58
71254;HTU21D;59019;47.638;18.966;2023-09-19T03:05:42;20.73;92.91
71254;HTU21D;59019;47.638;18.966;2023-09-19T03:08:13;20.73;92.83
71254;HTU21D;59019;47.638;18.966;2023-09-19T03:10:40;20.68;93.04
71254;HTU21D;59019;47.638;18.966;2023-09-19T03:13:06;20.48;93.95
71254;HTU21D;59019;47.638;18.966;2023-09-19T03:15:40;20.47;94.07
71254;HTU21D;59019;47.638;18.966;2023-09-19T03:18:06;20.42;94.31
71254;HTU21D;59019;47.638;18.966;2023-09-19T03:20:31;20.37;94.58
71254;HTU21D;59019;47.638;18.966;2023-09-19T03:22:57;20.34;94.71
71254;HTU21D;59019;47.638;18.966;2023-09-19T03:25:23;20.29;94.65
71254;HTU21D;59019;47.638;18.966;2023-09-19T03:27:52;20.18;95.27
71254;HTU21D;59019;47.638;18.966;2023-09-19T03:30:18;20.18;95.52
71254;HTU21D;59019;47.638;18.966;2023-09-19T03:32:44;20.18;95.33
71254;HTU21D;59019;47.638;18.966;2023-09-19T03:35:11;20.18;95.72
71254;HTU21D;59019;47.638;18.966;2023-09-19T03:37:42;20.25;95.10
71254;HTU21D;59019;47.638;18.966;2023-09-19T03:40:09;20.27;95.20
71254;HTU21D;59019;47.638;18.966;2023-09-19T03:42:38;20.28;95.13
71254;HTU21D;59019;47.638;18.966;2023-09-19T03:45:08;20.31;94.89
71254;HTU21D;59019;47.638;18.966;2023-09-19T03:47:41;20.30;95.04
71254;HTU21D;59019;47.638;18.966;2023-09-19T03:50:07;20.34;94.39
71254;HTU21D;59019;47.638;18.966;2023-09-19T03:52:34;20.41;94.35
71254;HTU21D;59019;47.638;18.966;2023-09-19T03:54:59;20.55;93.65
71254;HTU21D;59019;47.638;18.966;2023-09-19T03:57:26;20.68;93.01
71254;HTU21D;59019;47.638;18.966;2023-09-19T03:59:52;20.59;93.30
71254;HTU21D;59019;47.638;18.966;2023-09-19T04:02:19;20.57;93.28
71254;HTU21D;59019;47.638;18.966;2023-09-19T04:04:49;20.55;93.35
71254;HTU21D;59019;47.638;18.966;2023-09-19T04:07:15;20.63;93.04
71254;HTU21D;59019;47.638;18.966;2023-09-19T04:09:41;20.68;92.50
71254;HTU21D;59019;47.638;18.966;2023-09-19T04:12:07;20.63;92.08
71254;HTU21D;59019;47.638;18.966;2023-09-19T04:14:35;20.51;91.82
71254;HTU21D;59019;47.638;18.966;2023-09-19T04:17:02;20.55;91.23
71254;HTU21D;59019;47.638;18.966;2023-09-19T04:19:28;20.58;91.13
71254;HTU21D;59019;47.638;18.966;2023-09-19T04:21:53;20.57;90.71
71254;HTU21D;59019;47.638;18.966;2023-09-19T04:24:19;20.57;90.57
71254;HTU21D;59019;47.638;18.966;2023-09-19T04:26:45;20.49;90.71
71254;HTU21D;59019;47.638;18.966;2023-09-19T04:29:11;20.54;90.47
71254;HTU21D;59019;47.638;18.966;2023-09-19T04:31:39;20.54;90.18
71254;HTU21D;59019;47.638;18.966;2023-09-19T04:34:06;20.36;90.79
71254;HTU21D;59019;47.638;18.966;2023-09-19T04:36:36;20.36;90.74
71254;HTU21D;59019;47.638;18.966;2023-09-19T04:39:03;20.43;90.89
71254;HTU21D;59019;47.638;18.966;2023-09-19T04:41:32;20.36;90.96
71254;HTU21D;59019;47.638;18.966;2023-09-19T04:43:59;20.39;90.94
71254;HTU21D;59019;47.638;18.966;2023-09-19T04:46:25;20.37;91.03
71254;HTU21D;59019;47.638;18.966;2023-09-19T04:48:50;20.41;90.86
71254;HTU21D;59019;47.638;18.966;2023-09-19T04:51:16;20.45;90.63
71254;HTU21D;59019;47.638;18.966;2023-09-19T04:53:44;20.50;90.42
71254;HTU21D;59019;47.638;18.966;2023-09-19T04:56:09;20.21;91.45
71254;HTU21D;59019;47.638;18.966;2023-09-19T04:58:35;20.16;91.76
71254;HTU21D;59019;47.638;18.966;2023-09-19T05:01:00;20.15;92.15
71254;HTU21D;59019;47.638;18.966;2023-09-19T05:03:27;20.00;92.76
71254;HTU21D;59019;47.638;18.966;2023-09-19T05:05:52;19.99;92.76
71254;HTU21D;59019;47.638;18.966;2023-09-19T05:08:18;19.98;92.97
71254;HTU21D;59019;47.638;18.966;2023-09-19T05:10:43;19.86;93.49
71254;HTU21D;59019;47.638;18.966;2023-09-19T05:13:10;19.70;94.44
71254;HTU21D;59019;47.638;18.966;2023-09-19T05:15:37;19.57;94.74
71254;HTU21D;59019;47.638;18.966;2023-09-19T05:18:03;19.56;95.04
71254;HTU21D;59019;47.638;18.966;2023-09-19T05:20:28;19.53;94.84
71254;HTU21D;59019;47.638;18.966;2023-09-19T05:23:06;19.40;95.09
71254;HTU21D;59019;47.638;18.966;2023-09-19T05:25:37;19.43;95.30
71254;HTU21D;59019;47.638;18.966;2023-09-19T05:28:05;19.26;95.36
71254;HTU21D;59019;47.638;18.966;2023-09-19T05:30:31;19.18;95.39
71254;HTU21D;59019;47.638;18.966;2023-09-19T05:32:58;19.11;95.48
71254;HTU21D;59019;47.638;18.966;2023-09-19T05:35:24;19.10;95.40
71254;HTU21D;59019;47.638;18.966;2023-09-19T05:37:50;18.92;95.94
71254;HTU21D;59019;47.638;18.966;2023-09-19T05:40:19;18.87;96.42
71254;HTU21D;59019;47.638;18.966;2023-09-19T05:42:45;18.79;96.73
71254;HTU21D;59019;47.638;18.966;2023-09-19T05:45:12;18.68;96.93
71254;HTU21D;59019;47.638;18.966;2023-09-19T05:47:41;18.70;97.18
71254;HTU21D;59019;47.638;18.966;2023-09-19T05:50:09;18.59;97.74
71254;HTU21D;59019;47.638;18.966;2023-09-19T05:52:40;18.47;98.28
71254;HTU21D;59019;47.638;18.966;2023-09-19T05:55:07;18.50;98.39
71254;HTU21D;59019;47.638;18.966;2023-09-19T05:57:36;18.49;98.39
71254;HTU21D;59019;47.638;18.966;2023-09-19T06:00:05;18.32;98.94
71254;HTU21D;59019;47.638;18.966;2023-09-19T06:02:37;18.23;99.35
71254;HTU21D;59019;47.638;18.966;2023-09-19T06:05:04;18.33;99.01
71254;HTU21D;59019;47.638;18.966;2023-09-19T06:07:32;18.30;99.16
71254;HTU21D;59019;47.638;18.966;2023-09-19T06:10:05;18.35;99.04
71254;HTU21D;59019;47.638;18.966;2023-09-19T06:12:39;18.38;98.94
71254;HTU21D;59019;47.638;18.966;2023-09-19T06:15:05;18.34;99.51
71254;HTU21D;59019;47.638;18.966;2023-09-19T06:17:31;18.23;100.33
71254;HTU21D;59019;47.638;18.966;2023-09-19T06:19:57;18.22;101.09
71254;HTU21D;59019;47.638;18.966;2023-09-19T06:22:22;18.03;102.19
71254;HTU21D;59019;47.638;18.966;2023-09-19T06:24:49;17.98;102.97
71254;HTU21D;59019;47.638;18.966;2023-09-19T06:27:15;17.77;104.52
71254;HTU21D;59019;47.638;18.966;2023-09-19T06:29:40;17.79;104.67
71254;HTU21D;59019;47.638;18.966;2023-09-19T06:32:10;17.80;105.56
71254;HTU21D;59019;47.638;18.966;2023-09-19T06:34:36;17.65;106.08
71254;HTU21D;59019;47.638;18.966;2023-09-19T06:37:02;17.68;107.01
71254;HTU21D;59019;47.638;18.966;2023-09-19T06:39:28;17.69;107.04
71254;HTU21D;59019;47.638;18.966;2023-09-19T06:41:54;17.70;106.81
71254;HTU21D;59019;47.638;18.966;2023-09-19T06:44:19;17.68;106.97
71254;HTU21D;59019;47.638;18.966;2023-09-19T06:46:50;17.74;107.66
71254;HTU21D;59019;47.638;18.966;2023-09-19T06:49:17;17.72;107.37
71254;HTU21D;59019;47.638;18.966;2023-09-19T06:51:43;17.78;107.48
71254;HTU21D;59019;47.638;18.966;2023-09-19T06:54:10;17.76;108.28
71254;HTU21D;59019;47.638;18.966;2023-09-19T06:56:35;17.81;107.17
71254;HTU21D;59019;47.638;18.966;2023-09-19T06:59:01;17.77;107.74
71254;HTU21D;59019;47.638;18.966;2023-09-19T07:01:28;17.80;107.27
71254;HTU21D;59019;47.638;18.966;2023-09-19T07:03:54;17.88;106.75
71254;HTU21D;59019;47.638;18.966;2023-09-19T07:06:20;17.97;106.81
71254;HTU21D;59019;47.638;18.966;2023-09-19T07:08:45;17.93;107.62
71254;HTU21D;59019;47.638;18.966;2023-09-19T07:11:11;17.92;107.01
71254;HTU21D;59019;47.638;18.966;2023-09-19T07:13:38;17.92;105.87
71254;HTU21D;59019;47.638;18.966;2023-09-19T07:16:04;17.80;106.82
71254;HTU21D;59019;47.638;18.966;2023-09-19T07:18:30;17.69;108.01
71254;HTU21D;59019;47.638;18.966;2023-09-19T07:20:57;17.63;108.06
71254;HTU21D;59019;47.638;18.966;2023-09-19T07:23:26;17.82;107.74
71254;HTU21D;59019;47.638;18.966;2023-09-19T07:25:52;17.82;107.94
71254;HTU21D;59019;47.638;18.966;2023-09-19T07:28:18;17.67;108.20
71254;HTU21D;59019;47.638;18.966;2023-09-19T07:30:43;17.75;107.44
71254;HTU21D;59019;47.638;18.966;2023-09-19T07:33:09;17.69;108.43
71254;HTU21D;59019;47.638;18.966;2023-09-19T07:35:38;17.64;109.94
71254;HTU21D;59019;47.638;18.966;2023-09-19T07:38:07;17.63;109.51
71254;HTU21D;59019;47.638;18.966;2023-09-19T07:40:33;17.68;108.88
71254;HTU21D;59019;47.638;18.966;2023-09-19T07:42:59;17.72;109.29
71254;HTU21D;59019;47.638;18.966;2023-09-19T07:45:29;17.73;108.78
71254;HTU21D;59019;47.638;18.966;2023-09-19T07:47:55;17.73;111.45
71254;HTU21D;59019;47.638;18.966;2023-09-19T07:50:21;17.81;111.32
71254;HTU21D;59019;47.638;18.966;2023-09-19T07:52:47;17.87;110.39
71254;HTU21D;59019;47.638;18.966;2023-09-19T07:55:13;18.09;108.67
71254;HTU21D;59019;47.638;18.966;2023-09-19T07:57:43;18.20;108.27
71254;HTU21D;59019;47.638;18.966;2023-09-19T08:00:09;18.35;105.67
71254;HTU21D;59019;47.638;18.966;2023-09-19T08:02:41;18.30;106.38
71254;HTU21D;59019;47.638;18.966;2023-09-19T08:05:08;18.56;106.26
71254;HTU21D;59019;47.638;18.966;2023-09-19T08:07:40;18.73;104.27
71254;HTU21D;59019;47.638;18.966;2023-09-19T08:10:07;18.64;103.61
71254;HTU21D;59019;47.638;18.966;2023-09-19T08:12:35;18.72;103.46
71254;HTU21D;59019;47.638;18.966;2023-09-19T08:15:02;18.70;103.77
71254;HTU21D;59019;47.638;18.966;2023-09-19T08:17:28;18.59;103.32
71254;HTU21D;59019;47.638;18.966;2023-09-19T08:19:53;18.54;103.70
71254;HTU21D;59019;47.638;18.966;2023-09-19T08:22:19;18.58;103.09
71254;HTU21D;59019;47.638;18.966;2023-09-19T08:24:45;18.58;103.57
71254;HTU21D;59019;47.638;18.966;2023-09-19T08:27:11;18.47;103.83
71254;HTU21D;59019;47.638;18.966;2023-09-19T08:29:38;18.51;104.23
71254;HTU21D;59019;47.638;18.966;2023-09-19T08:32:04;18.61;103.58
71254;HTU21D;59019;47.638;18.966;2023-09-19T08:34:30;18.67;103.53
71254;HTU21D;59019;47.638;18.966;2023-09-19T08:36:58;18.70;103.34
71254;HTU21D;59019;47.638;18.966;2023-09-19T08:39:26;18.80;103.13
71254;HTU21D;59019;47.638;18.966;2023-09-19T08:41:59;18.73;102.49
71254;HTU21D;59019;47.638;18.966;2023-09-19T08:44:25;18.47;104.21
71254;HTU21D;59019;47.638;18.966;2023-09-19T08:47:05;18.46;104.50
71254;HTU21D;59019;47.638;18.966;2023-09-19T08:49:41;18.63;103.88
71254;HTU21D;59019;47.638;18.966;2023-09-19T08:52:25;18.67;103.58
71254;HTU21D;59019;47.638;18.966;2023-09-19T08:54:52;18.69;103.10
71254;HTU21D;59019;47.638;18.966;2023-09-19T08:57:19;18.53;104.10
71254;HTU21D;59019;47.638;18.966;2023-09-19T08:59:51;18.52;103.52
71254;HTU21D;59019;47.638;18.966;2023-09-19T09:02:17;18.68;102.53
71254;HTU21D;59019;47.638;18.966;2023-09-19T09:04:45;18.74;101.69
71254;HTU21D;59019;47.638;18.966;2023-09-19T09:07:13;18.78;102.26
71254;HTU21D;59019;47.638;18.966;2023-09-19T09:09:39;18.62;102.55
71254;HTU21D;59019;47.638;18.966;2023-09-19T09:12:19;18.59;103.24
71254;HTU21D;59019;47.638;18.966;2023-09-19T09:14:46;18.54;103.49
71254;HTU21D;59019;47.638;18.966;2023-09-19T09:17:14;18.52;103.64
71254;HTU21D;59019;47.638;18.966;2023-09-19T09:19:39;18.37;103.75
71254;HTU21D;59019;47.638;18.966;2023-09-19T09:22:10;18.37;105.34
71254;HTU21D;59019;47.638;18.966;2023-09-19T09:24:37;18.48;104.97
71254;HTU21D;59019;47.638;18.966;2023-09-19T09:27:05;18.51;104.42
71254;HTU21D;59019;47.638;18.966;2023-09-19T09:29:47;18.41;104.80
71254;HTU21D;59019;47.638;18.966;2023-09-19T09:32:30;18.38;105.08
71254;HTU21D;59019;47.638;18.966;2023-09-19T09:35:00;18.36;104.61
71254;HTU21D;59019;47.638;18.966;2023-09-19T09:37:28;18.35;105.34
71254;HTU21D;59019;47.638;18.966;2023-09-19T09:40:00;18.52;105.14
71254;HTU21D;59019;47.638;18.966;2023-09-19T09:42:42;18.73;103.89
71254;HTU21D;59019;47.638;18.966;2023-09-19T09:48:00;19.21;101.93
71254;HTU21D;59019;47.638;18.966;2023-09-19T09:50:34;19.40;101.51
71254;HTU21D;59019;47.638;18.966;2023-09-19T09:53:28;19.70;101.09
71254;HTU21D;59019;47.638;18.966;2023-09-19T09:56:07;20.01;99.90
71254;HTU21D;59019;47.638;18.966;2023-09-19T09:58:52;20.02;97.31
71254;HTU21D;59019;47.638;18.966;2023-09-19T10:01:21;20.12;97.62
71254;HTU21D;59019;47.638;18.966;2023-09-19T10:03:49;19.95;98.48
71254;HTU21D;59019;47.638;18.966;2023-09-19T10:06:17;19.91;98.89
71254;HTU21D;59019;47.638;18.966;2023-09-19T10:09:04;20.01;98.58
71254;HTU21D;59019;47.638;18.966;2023-09-19T10:12:03;20.24;98.89
71254;HTU21D;59019;47.638;18.966;2023-09-19T10:14:33;20.26;97.49
71254;HTU21D;59019;47.638;18.966;2023-09-19T10:17:05;20.42;97.47
71254;HTU21D;59019;47.638;18.966;2023-09-19T10:19:37;20.85;96.70
71254;HTU21D;59019;47.638;18.966;2023-09-19T10:22:12;21.37;95.43
71254;HTU21D;59019;47.638;18.966;2023-09-19T10:24:43;21.46;93.86
71254;HTU21D;59019;47.638;18.966;2023-09-19T10:27:10;21.88;94.27
71254;HTU21D;59019;47.638;18.966;2023-09-19T10:29:39;21.69;92.91
71254;HTU21D;59019;47.638;18.966;2023-09-19T10:32:05;21.87;93.75
71254;HTU21D;59019;47.638;18.966;2023-09-19T10:34:35;21.79;93.63
71254;HTU21D;59019;47.638;18.966;2023-09-19T10:37:02;21.92;93.49
71254;HTU21D;59019;47.638;18.966;2023-09-19T10:39:32;21.91;92.42
71254;HTU21D;59019;47.638;18.966;2023-09-19T10:42:02;21.95;92.59
71254;HTU21D;59019;47.638;18.966;2023-09-19T10:44:32;21.93;91.85
71254;HTU21D;59019;47.638;18.966;2023-09-19T10:46:58;21.74;93.09
71254;HTU21D;59019;47.638;18.966;2023-09-19T10:49:24;21.51;91.85
71254;HTU21D;59019;47.638;18.966;2023-09-19T10:51:55;21.40;93.17
71254;HTU21D;59019;47.638;18.966;2023-09-19T10:54:27;21.20;93.61
71254;HTU21D;59019;47.638;18.966;2023-09-19T10:56:54;21.01;94.25
71254;HTU21D;59019;47.638;18.966;2023-09-19T10:59:24;21.04;94.30
71254;HTU21D;59019;47.638;18.966;2023-09-19T11:04:31;20.86;93.85
71254;HTU21D;59019;47.638;18.966;2023-09-19T11:09:49;20.86;94.90
71254;HTU21D;59019;47.638;18.966;2023-09-19T11:26:43;21.91;92.19
71254;HTU21D;59019;47.638;18.966;2023-09-19T11:29:27;22.39;89.90
71254;HTU21D;59019;47.638;18.966;2023-09-19T11:31:57;23.06;88.31
71254;HTU21D;59019;47.638;18.966;2023-09-19T11:37:03;24.34;84.26
71254;HTU21D;59019;47.638;18.966;2023-09-19T11:39:30;24.78;82.55
71254;HTU21D;59019;47.638;18.966;2023-09-19T11:41:56;24.57;81.53
71254;HTU21D;59019;47.638;18.966;2023-09-19T11:44:32;24.85;81.05
71254;HTU21D;59019;47.638;18.966;2023-09-19T11:47:04;25.44;79.54
71254;HTU21D;59019;47.638;18.966;2023-09-19T11:49:32;25.66;78.87
71254;HTU21D;59019;47.638;18.966;2023-09-19T11:51:59;25.79;78.06
71254;HTU21D;59019;47.638;18.966;2023-09-19T11:54:31;25.64;78.45
71254;HTU21D;59019;47.638;18.966;2023-09-19T11:56:59;25.76;77.09
71254;HTU21D;59019;47.638;18.966;2023-09-19T11:59:26;26.25;75.56
71254;HTU21D;59019;47.638;18.966;2023-09-19T12:01:57;26.32;73.78
71254;HTU21D;59019;47.638;18.966;2023-09-19T12:07:08;25.56;75.67
71254;HTU21D;59019;47.638;18.966;2023-09-19T12:09:49;25.39;77.40
71254;HTU21D;59019;47.638;18.966;2023-09-19T12:12:28;25.57;76.28
71254;HTU21D;59019;47.638;18.966;2023-09-19T12:14:55;25.82;77.34
71254;HTU21D;59019;47.638;18.966;2023-09-19T12:17:40;25.53;76.31
71254;HTU21D;59019;47.638;18.966;2023-09-19T12:20:10;25.17;77.11
71254;HTU21D;59019;47.638;18.966;2023-09-19T12:22:43;24.95;76.58
71254;HTU21D;59019;47.638;18.966;2023-09-19T12:25:10;24.64;77.82
71254;HTU21D;59019;47.638;18.966;2023-09-19T12:27:47;24.78;78.29
71254;HTU21D;59019;47.638;18.966;2023-09-19T12:30:16;24.95;77.92
71254;HTU21D;59019;47.638;18.966;2023-09-19T12:32:43;25.34;76.98
71254;HTU21D;59019;47.638;18.966;2023-09-19T12:35:10;25.31;76.63
71254;HTU21D;59019;47.638;18.966;2023-09-19T12:37:52;25.12;76.45
71254;HTU21D;59019;47.638;18.966;2023-09-19T12:40:21;25.12;77.11
71254;HTU21D;59019;47.638;18.966;2023-09-19T12:42:54;25.09;76.93
71254;HTU21D;59019;47.638;18.966;2023-09-19T12:45:28;24.92;77.06
71254;HTU21D;59019;47.638;18.966;2023-09-19T12:48:18;24.92;78.54
71254;HTU21D;59019;47.638;18.966;2023-09-19T12:51:05;25.39;77.77
71254;HTU21D;59019;47.638;18.966;2023-09-19T12:53:32;25.50;76.57
71254;HTU21D;59019;47.638;18.966;2023-09-19T12:56:00;25.68;76.07
71254;HTU21D;59019;47.638;18.966;2023-09-19T12:58:25;25.77;75.30
71254;HTU21D;59019;47.638;18.966;2023-09-19T13:00:51;25.97;75.59
71254;HTU21D;59019;47.638;18.966;2023-09-19T13:06:02;26.07;74.43
71254;HTU21D;59019;47.638;18.966;2023-09-19T13:08:39;26.11;74.68
71254;HTU21D;59019;47.638;18.966;2023-09-19T13:14:14;25.91;74.44
71254;HTU21D;59019;47.638;18.966;2023-09-19T13:17:06;25.13;76.03
71254;HTU21D;59019;47.638;18.966;2023-09-19T13:19:43;25.10;76.87
71254;HTU21D;59019;47.638;18.966;2023-09-19T13:22:42;25.19;77.16
71254;HTU21D;59019;47.638;18.966;2023-09-19T13:25:12;25.15;76.63
71254;HTU21D;59019;47.638;18.966;2023-09-19T13:27:44;25.22;76.17
71254;HTU21D;59019;47.638;18.966;2023-09-19T13:30:12;25.53;75.73
71254;HTU21D;59019;47.638;18.966;2023-09-19T13:32:38;25.46;75.50
71254;HTU21D;59019;47.638;18.966;2023-09-19T13:35:06;25.29;75.84
71254;HTU21D;59019;47.638;18.966;2023-09-19T13:37:35;25.23;75.94
71254;HTU21D;59019;47.638;18.966;2023-09-19T13:40:15;25.06;76.54
71254;HTU21D;59019;47.638;18.966;2023-09-19T13:42:41;25.15;75.97
71254;HTU21D;59019;47.638;18.966;2023-09-19T13:45:08;25.29;76.49
71254;HTU21D;59019;47.638;18.966;2023-09-19T13:47:37;25.37;76.24
71254;HTU21D;59019;47.638;18.966;2023-09-19T13:50:04;24.82;76.53
71254;HTU21D;59019;47.638;18.966;2023-09-19T13:52:32;24.98;75.88
71254;HTU21D;59019;47.638;18.966;2023-09-19T13:54:58;24.82;75.81
71254;HTU21D;59019;47.638;18.966;2023-09-19T13:57:25;24.54;76.86
71254;HTU21D;59019;47.638;18.966;2023-09-19T13:59:51;24.64;77.46
71254;HTU21D;59019;47.638;18.966;2023-09-19T14:02:17;24.57;77.51
71254;HTU21D;59019;47.638;18.966;2023-09-19T14:04:47;24.56;77.33
71254;HTU21D;59019;47.638;18.966;2023-09-19T14:07:12;24.65;77.14
71254;HTU21D;59019;47.638;18.966;2023-09-19T14:09:40;24.64;76.79
71254;HTU21D;59019;47.638;18.966;2023-09-19T14:12:08;24.34;77.60
71254;HTU21D;59019;47.638;18.966;2023-09-19T14:14:37;24.21;78.18
71254;HTU21D;59019;47.638;18.966;2023-09-19T14:17:23;24.03;78.72
71254;HTU21D;59019;47.638;18.966;2023-09-19T14:20:10;23.66;78.68
71254;HTU21D;59019;47.638;18.966;2023-09-19T14:22:57;23.43;79.39
71254;HTU21D;59019;47.638;18.966;2023-09-19T14:25:47;23.26;79.92
71254;HTU21D;59019;47.638;18.966;2023-09-19T14:28:33;23.03;80.49
71254;HTU21D;59019;47.638;18.966;2023-09-19T14:31:19;22.91;80.24
71254;HTU21D;59019;47.638;18.966;2023-09-19T14:33:57;22.71;81.41
71254;HTU21D;59019;47.638;18.966;2023-09-19T14:36:24;22.69;81.14
71254;HTU21D;59019;47.638;18.966;2023-09-19T14:38:53;22.60;81.32
71254;HTU21D;59019;47.638;18.966;2023-09-19T14:41:22;22.43;81.62
71254;HTU21D;59019;47.638;18.966;2023-09-19T14:43:49;22.39;81.58
71254;HTU21D;59019;47.638;18.966;2023-09-19T14:46:14;22.39;82.14
71254;HTU21D;59019;47.638;18.966;2023-09-19T14:48:40;22.42;82.01
71254;HTU21D;59019;47.638;18.966;2023-09-19T14:51:07;22.41;82.17
71254;HTU21D;59019;47.638;18.966;2023-09-19T14:53:34;22.53;82.27
71254;HTU21D;59019;47.638;18.966;2023-09-19T14:56:04;22.47;81.65
71254;HTU21D;59019;47.638;18.966;2023-09-19T14:58:34;22.47;80.30
71254;HTU21D;59019;47.638;18.966;2023-09-19T15:03:34;22.43;81.30
71254;HTU21D;59019;47.638;18.966;2023-09-19T15:06:11;22.47;81.30
71254;HTU21D;59019;47.638;18.966;2023-09-19T15:08:47;22.36;81.27
71254;HTU21D;59019;47.638;18.966;2023-09-19T15:11:19;22.38;80.84
71254;HTU21D;59019;47.638;18.966;2023-09-19T15:13:47;22.31;80.08
71254;HTU21D;59019;47.638;18.966;2023-09-19T15:16:13;22.24;79.40
71254;HTU21D;59019;47.638;18.966;2023-09-19T15:18:41;22.11;79.67
71254;HTU21D;59019;47.638;18.966;2023-09-19T15:21:07;22.05;79.55
71254;HTU21D;59019;47.638;18.966;2023-09-19T15:23:37;21.97;79.69
71254;HTU21D;59019;47.638;18.966;2023-09-19T15:26:07;21.95;79.95
71254;HTU21D;59019;47.638;18.966;2023-09-19T15:28:42;21.98;79.93
71254;HTU21D;59019;47.638;18.966;2023-09-19T15:31:11;21.90;80.56
71254;HTU21D;59019;47.638;18.966;2023-09-19T15:33:38;21.83;81.32
71254;HTU21D;59019;47.638;18.966;2023-09-19T15:41:44;21.64;82.36
71254;HTU21D;59019;47.638;18.966;2023-09-19T15:44:16;21.52;82.91
71254;HTU21D;59019;47.638;18.966;2023-09-19T15:46:42;21.42;83.45
71254;HTU21D;59019;47.638;18.966;2023-09-19T15:49:08;21.39;83.51
71254;HTU21D;59019;47.638;18.966;2023-09-19T15:51:37;21.37;83.98
71254;HTU21D;59019;47.638;18.966;2023-09-19T15:54:14;21.24;84.76
71254;HTU21D;59019;47.638;18.966;2023-09-19T15:56:43;21.24;85.17
71254;HTU21D;59019;47.638;18.966;2023-09-19T15:59:11;21.18;85.03
71254;HTU21D;59019;47.638;18.966;2023-09-19T16:01:41;21.15;84.90
71254;HTU21D;59019;47.638;18.966;2023-09-19T16:04:08;21.09;85.13